createdAt,value
2018-10-03T00:00:25.099Z,7.13
2018-10-03T00:02:54.267Z,6.60
2018-10-03T00:05:23.515Z,6.83
2018-10-03T00:07:52.695Z,7.50
2018-10-03T00:10:21.903Z,6.37
2018-10-03T00:12:51.088Z,5.97
2018-10-03T00:15:20.374Z,5.87
2018-10-03T00:17:49.554Z,5.93
2018-10-03T00:20:18.720Z,6.35
2018-10-03T00:22:47.883Z,6.87
2018-10-03T00:25:17.659Z,7.40
2018-10-03T00:27:46.822Z,7.23
2018-10-03T00:30:16.727Z,8.00
2018-10-03T00:32:45.876Z,7.30
2018-10-03T00:35:16.514Z,7.00
2018-10-03T00:37:45.764Z,7.40
2018-10-03T00:40:15.994Z,8.30
2018-10-03T00:42:45.146Z,8.10
2018-10-03T00:45:15.455Z,6.63
2018-10-03T00:47:44.635Z,8.03
2018-10-03T00:50:15.061Z,7.73
2018-10-03T00:52:44.224Z,7.90
2018-10-03T00:55:14.827Z,8.27
2018-10-03T00:57:44.052Z,8.13
2018-10-03T01:00:13.560Z,8.15
2018-10-03T01:02:42.759Z,8.20
2018-10-03T01:05:12.142Z,8.30
2018-10-03T01:07:41.319Z,8.47
2018-10-03T01:10:10.546Z,8.78
2018-10-03T01:12:39.715Z,8.20
2018-10-03T01:15:08.935Z,9.03
2018-10-03T01:17:38.214Z,8.63
2018-10-03T01:20:07.448Z,7.43
2018-10-03T01:22:36.624Z,8.53
2018-10-03T01:25:05.908Z,8.87
2018-10-03T01:27:35.049Z,8.40
2018-10-03T01:30:04.339Z,8.70
2018-10-03T01:32:33.503Z,8.90
2018-10-03T01:35:02.727Z,8.83
2018-10-03T01:37:31.904Z,8.33
2018-10-03T01:40:01.135Z,8.25
2018-10-03T01:42:30.307Z,8.57
2018-10-03T01:44:59.490Z,8.80
2018-10-03T01:47:28.686Z,8.10
2018-10-03T01:49:57.882Z,9.07
2018-10-03T01:52:27.081Z,8.07
2018-10-03T01:54:56.228Z,9.37
2018-10-03T01:57:25.465Z,8.30
2018-10-03T01:59:54.619Z,7.90
2018-10-03T02:02:23.804Z,7.73
2018-10-03T02:04:52.983Z,8.40
2018-10-03T02:07:22.152Z,7.43
2018-10-03T02:09:51.344Z,8.57
2018-10-03T02:12:20.515Z,7.97
2018-10-03T02:14:49.712Z,7.83
2018-10-03T02:17:18.849Z,6.53
2018-10-03T02:19:48.436Z,8.30
2018-10-03T02:22:17.665Z,8.10
2018-10-03T02:24:46.854Z,8.30
2018-10-03T02:27:16.085Z,8.20
2018-10-03T02:29:45.284Z,8.13
2018-10-03T02:32:14.888Z,8.13
2018-10-03T02:34:44.048Z,8.07
2018-10-03T02:37:13.937Z,8.07
2018-10-03T02:39:43.062Z,8.10
2018-10-03T02:42:12.709Z,8.40
2018-10-03T02:44:41.828Z,8.70
2018-10-03T02:47:11.007Z,9.00
2018-10-03T02:49:40.182Z,8.70
2018-10-03T02:52:09.376Z,8.40
2018-10-03T02:54:38.559Z,9.47
2018-10-03T02:57:07.755Z,8.70
2018-10-03T02:59:36.892Z,9.20
2018-10-03T03:02:06.284Z,8.70
2018-10-03T03:04:35.484Z,9.50
2018-10-03T03:07:06.043Z,8.73
2018-10-03T03:09:35.263Z,8.60
2018-10-03T03:12:04.475Z,10.37
2018-10-03T03:14:33.643Z,9.90
2018-10-03T03:32:05.872Z,9.90
2018-10-03T03:34:35.077Z,10.33
2018-10-03T03:37:04.294Z,9.27
2018-10-03T03:39:33.494Z,10.80
2018-10-03T03:42:02.740Z,9.63
2018-10-03T03:44:31.915Z,10.37
2018-10-03T03:47:01.152Z,9.97
2018-10-03T03:49:30.322Z,9.80
2018-10-03T03:51:59.546Z,10.13
2018-10-03T03:54:28.727Z,9.88
2018-10-03T03:56:58.192Z,10.20
2018-10-03T03:59:27.373Z,9.90
2018-10-03T04:01:56.615Z,10.23
2018-10-03T04:04:26.003Z,9.90
2018-10-03T04:06:55.260Z,10.40
2018-10-03T04:09:24.423Z,9.60
2018-10-03T04:11:53.640Z,9.60
2018-10-03T04:14:22.820Z,10.57
2018-10-03T04:16:52.040Z,10.37
2018-10-03T04:19:21.201Z,10.70
2018-10-03T04:21:50.415Z,10.23
2018-10-03T04:24:19.608Z,10.20
2018-10-03T04:26:51.789Z,10.57
2018-10-03T04:29:21.037Z,11.20
2018-10-03T04:31:50.267Z,10.30
2018-10-03T04:34:19.443Z,11.70
2018-10-03T04:36:48.711Z,11.10
2018-10-03T04:39:18.071Z,10.90
2018-10-03T04:41:47.344Z,11.17
2018-10-03T04:44:16.544Z,10.70
2018-10-03T04:46:45.787Z,10.90
2018-10-03T04:49:15.292Z,11.23
2018-10-03T04:51:44.521Z,11.23
2018-10-03T04:54:14.175Z,10.60
2018-10-03T04:56:43.431Z,10.80
2018-10-03T04:59:13.089Z,11.53
2018-10-03T05:01:42.344Z,12.00
2018-10-03T05:04:11.995Z,11.50
2018-10-03T05:06:41.188Z,11.70
2018-10-03T05:09:10.530Z,10.93
2018-10-03T05:11:39.742Z,11.50
2018-10-03T05:14:09.402Z,12.73
2018-10-03T05:16:38.635Z,11.70
2018-10-03T05:19:08.132Z,11.33
2018-10-03T05:21:37.440Z,12.73
2018-10-03T05:24:07.102Z,12.85
2018-10-03T05:26:36.327Z,12.53
2018-10-03T05:29:05.570Z,12.53
2018-10-03T05:31:34.800Z,12.80
2018-10-03T05:34:04.864Z,12.37
2018-10-03T05:36:34.119Z,11.30
2018-10-03T05:39:03.912Z,12.50
2018-10-03T05:41:33.154Z,11.13
2018-10-03T05:44:02.376Z,12.13
2018-10-03T05:46:31.599Z,11.77
2018-10-03T05:49:00.792Z,11.68
2018-10-03T05:51:30.001Z,12.20
2018-10-03T05:53:59.158Z,12.00
2018-10-03T05:56:28.395Z,11.90
2018-10-03T05:58:57.621Z,11.60
2018-10-03T06:01:26.856Z,10.53
2018-10-03T06:03:56.067Z,10.03
2018-10-03T06:06:25.325Z,11.10
2018-10-03T06:08:54.528Z,11.93
2018-10-03T06:11:23.770Z,10.63
2018-10-03T06:13:52.936Z,10.20
2018-10-03T06:16:22.207Z,9.93
2018-10-03T06:18:51.509Z,9.63
2018-10-03T06:21:20.756Z,10.27
2018-10-03T06:23:49.971Z,10.27
2018-10-03T06:26:19.229Z,9.15
2018-10-03T06:28:48.451Z,8.97
2018-10-03T06:31:17.709Z,9.83
2018-10-03T06:33:47.065Z,9.33
2018-10-03T06:36:16.303Z,8.75
2018-10-03T06:38:45.537Z,7.93
2018-10-03T06:41:14.883Z,11.33
2018-10-03T06:43:44.992Z,8.40
2018-10-03T06:46:14.191Z,8.13
2018-10-03T06:48:43.381Z,8.25
2018-10-03T06:51:12.658Z,8.10
2018-10-03T06:53:41.879Z,14.30
2018-10-03T06:56:11.148Z,24.87
2018-10-03T06:58:40.384Z,8.77
2018-10-03T07:01:10.187Z,7.67
2018-10-03T07:03:39.441Z,7.33
2018-10-03T07:06:09.492Z,7.50
2018-10-03T07:08:38.701Z,9.10
2018-10-03T07:11:08.268Z,7.20
2018-10-03T07:13:37.472Z,7.00
2018-10-03T07:16:07.390Z,7.10
2018-10-03T07:18:36.693Z,7.20
2018-10-03T07:21:05.927Z,8.07
2018-10-03T07:23:35.155Z,6.93
2018-10-03T07:26:04.439Z,7.57
2018-10-03T07:28:33.642Z,7.00
2018-10-03T07:31:02.855Z,6.73
2018-10-03T07:33:32.195Z,7.40
2018-10-03T07:36:01.458Z,6.10
2018-10-03T07:38:30.666Z,6.13
2018-10-03T07:40:59.866Z,6.90
2018-10-03T07:43:29.073Z,6.78
2018-10-03T07:45:58.280Z,5.73
2018-10-03T07:48:27.463Z,6.50
2018-10-03T07:50:56.646Z,6.03
2018-10-03T07:53:26.146Z,6.53
2018-10-03T07:55:55.483Z,5.62
2018-10-03T07:58:24.695Z,6.20
2018-10-03T08:00:53.952Z,5.47
2018-10-03T08:03:23.173Z,5.50
2018-10-03T08:05:52.433Z,4.93
2018-10-03T08:08:21.741Z,4.57
2018-10-03T08:10:50.958Z,5.45
2018-10-03T08:13:20.164Z,7.30
2018-10-03T08:15:49.500Z,4.37
2018-10-03T08:18:18.763Z,4.00
2018-10-03T08:20:47.983Z,4.63
2018-10-03T08:23:17.223Z,4.30
2018-10-03T08:25:46.455Z,4.47
2018-10-03T08:28:18.577Z,4.33
2018-10-03T08:30:47.810Z,4.53
2018-10-03T08:33:17.110Z,4.00
2018-10-03T08:35:46.347Z,4.67
2018-10-03T08:38:15.578Z,3.50
2018-10-03T08:40:44.837Z,3.80
2018-10-03T08:43:14.104Z,3.47
2018-10-03T08:45:43.444Z,4.70
2018-10-03T08:48:12.605Z,5.60
2018-10-03T08:50:41.875Z,4.50
2018-10-03T08:53:11.061Z,4.93
2018-10-03T08:55:40.303Z,3.97
2018-10-03T08:58:09.910Z,4.33
2018-10-03T09:00:39.105Z,4.70
2018-10-03T09:03:08.840Z,4.20
2018-10-03T09:05:38.124Z,5.13
2018-10-03T09:08:11.745Z,4.83
2018-10-03T09:10:42.580Z,4.60
2018-10-03T09:13:12.363Z,4.83
2018-10-03T09:15:41.592Z,4.30
2018-10-03T09:18:11.131Z,4.20
2018-10-03T09:20:40.399Z,5.23
2018-10-03T09:23:09.748Z,5.20
2018-10-03T09:25:39.759Z,4.12
2018-10-03T09:28:09.325Z,3.90
2018-10-03T09:30:38.587Z,5.33
2018-10-03T09:33:08.364Z,6.70
2018-10-03T09:35:37.635Z,5.07
2018-10-03T09:38:07.143Z,4.90
2018-10-03T09:40:36.367Z,4.87
2018-10-03T09:43:05.667Z,4.50
2018-10-03T09:45:34.915Z,5.73
2018-10-03T09:48:04.334Z,4.30
2018-10-03T09:50:33.599Z,4.77
2018-10-03T09:53:02.791Z,5.70
2018-10-03T09:55:32.124Z,4.60
2018-10-03T09:58:01.374Z,4.13
2018-10-03T10:00:37.084Z,4.80
2018-10-03T10:03:08.570Z,5.03
2018-10-03T10:05:39.144Z,4.00
2018-10-03T10:08:10.979Z,4.27
2018-10-03T10:10:41.467Z,4.03
2018-10-03T10:13:13.029Z,4.87
2018-10-03T10:15:43.433Z,4.37
2018-10-03T10:18:12.727Z,4.00
2018-10-03T10:20:41.988Z,3.75
2018-10-03T10:23:11.427Z,3.77
2018-10-03T10:25:40.729Z,3.97
2018-10-03T10:28:10.806Z,4.23
2018-10-03T10:30:40.077Z,4.70
2018-10-03T10:33:09.744Z,3.87
2018-10-03T10:35:38.986Z,3.97
2018-10-03T10:38:08.582Z,4.30
2018-10-03T10:40:37.945Z,3.43
2018-10-03T10:43:08.007Z,5.17
2018-10-03T10:45:39.170Z,4.50
2018-10-03T10:48:11.407Z,4.10
2018-10-03T10:50:40.828Z,4.60
2018-10-03T10:53:10.395Z,4.90
2018-10-03T10:55:39.615Z,4.40
2018-10-03T10:58:09.362Z,4.10
2018-10-03T11:00:38.617Z,4.10
2018-10-03T11:03:08.064Z,5.70
2018-10-03T11:05:37.329Z,4.20
2018-10-03T11:08:06.651Z,3.52
2018-10-03T11:10:36.735Z,3.63
2018-10-03T11:13:05.957Z,3.20
2018-10-03T11:15:35.279Z,4.40
2018-10-03T11:18:04.508Z,3.60
2018-10-03T11:20:33.759Z,3.93
2018-10-03T11:23:02.994Z,3.63
2018-10-03T11:25:32.322Z,2.63
2018-10-03T11:28:01.507Z,2.97
2018-10-03T11:30:30.740Z,2.80
2018-10-03T11:32:59.976Z,3.77
2018-10-03T11:35:29.254Z,2.90
2018-10-03T11:37:59.216Z,2.87
2018-10-03T11:40:28.468Z,3.20
2018-10-03T11:42:57.728Z,3.50
2018-10-03T11:45:27.007Z,3.27
2018-10-03T11:47:56.228Z,3.30
2018-10-03T11:50:25.508Z,4.70
2018-10-03T11:52:55.281Z,4.20
2018-10-03T11:55:24.527Z,2.73
2018-10-03T11:57:53.764Z,3.00
2018-10-03T12:00:23.004Z,3.03
2018-10-03T12:02:52.259Z,3.62
2018-10-03T12:05:21.467Z,6.10
2018-10-03T12:07:50.676Z,4.00
2018-10-03T12:10:19.960Z,3.50
2018-10-03T12:12:49.339Z,3.57
2018-10-03T12:15:18.619Z,3.33
2018-10-03T12:17:47.841Z,3.47
2018-10-03T12:20:17.228Z,3.30
2018-10-03T12:22:46.461Z,3.90
2018-10-03T12:25:15.771Z,3.53
2018-10-03T12:27:44.960Z,3.17
2018-10-03T12:30:14.222Z,2.63
2018-10-03T12:32:43.649Z,2.97
2018-10-03T12:35:15.660Z,4.10
2018-10-03T12:37:44.897Z,4.10
2018-10-03T12:40:14.124Z,3.67
2018-10-03T12:42:43.363Z,3.30
2018-10-03T12:45:12.894Z,3.17
2018-10-03T12:47:42.678Z,3.60
2018-10-03T12:50:11.892Z,3.20
2018-10-03T12:52:41.155Z,3.73
2018-10-03T12:55:11.444Z,3.77
2018-10-03T12:57:40.680Z,4.37
2018-10-03T13:00:10.967Z,4.17
2018-10-03T13:02:40.203Z,3.13
2018-10-03T13:05:10.708Z,4.47
2018-10-03T13:07:40.008Z,3.30
2018-10-03T13:10:10.579Z,3.73
2018-10-03T13:12:39.829Z,3.80
2018-10-03T13:15:10.425Z,3.80
2018-10-03T13:17:39.643Z,3.90
2018-10-03T13:20:10.635Z,4.10
2018-10-03T13:22:39.844Z,5.53
2018-10-03T13:25:09.611Z,4.13
2018-10-03T13:27:38.835Z,3.90
2018-10-03T13:30:08.332Z,7.73
2018-10-03T13:32:37.635Z,4.73
2018-10-03T13:35:07.809Z,6.87
2018-10-03T13:37:37.040Z,6.37
2018-10-03T13:40:06.311Z,3.10
2018-10-03T13:42:35.504Z,8.15
2018-10-03T13:45:04.724Z,4.70
2018-10-03T13:47:34.008Z,4.43
2018-10-03T13:50:03.223Z,4.37
2018-10-03T13:52:32.416Z,4.20
2018-10-03T13:55:01.672Z,4.80
2018-10-03T13:57:30.869Z,4.10
2018-10-03T14:00:00.088Z,4.07
2018-10-03T14:02:29.301Z,3.87
2018-10-03T14:04:58.522Z,5.50
2018-10-03T14:07:27.726Z,4.57
2018-10-03T14:09:56.943Z,4.10
2018-10-03T14:12:26.175Z,4.37
2018-10-03T14:14:55.415Z,3.40
2018-10-03T14:17:24.624Z,4.17
2018-10-03T14:19:53.838Z,4.25
2018-10-03T14:22:23.021Z,4.30
2018-10-03T14:24:52.311Z,3.50
2018-10-03T14:27:21.527Z,3.63
2018-10-03T14:29:50.788Z,3.35
2018-10-03T14:32:20.001Z,7.97
2018-10-03T14:34:49.343Z,3.30
2018-10-03T14:37:18.598Z,2.70
2018-10-03T14:39:47.841Z,3.30
2018-10-03T14:42:16.999Z,3.87
2018-10-03T14:44:46.297Z,3.30
2018-10-03T14:47:15.510Z,3.47
2018-10-03T14:49:44.791Z,3.30
2018-10-03T14:52:14.238Z,3.50
2018-10-03T14:54:43.358Z,3.10
2018-10-03T14:57:12.541Z,8.40
2018-10-03T14:59:41.763Z,3.00
2018-10-03T15:02:10.975Z,4.00
2018-10-03T15:04:40.226Z,3.20
2018-10-03T15:07:09.702Z,2.97
2018-10-03T15:09:38.927Z,3.08
2018-10-03T15:12:08.623Z,3.37
2018-10-03T15:14:37.830Z,3.20
2018-10-03T15:17:07.368Z,2.70
2018-10-03T15:19:36.624Z,3.43
2018-10-03T15:22:05.906Z,3.47
2018-10-03T15:24:35.090Z,3.23
2018-10-03T15:27:04.300Z,4.03
2018-10-03T15:29:33.518Z,6.07
2018-10-03T15:32:02.745Z,4.43
2018-10-03T15:34:31.949Z,3.87
2018-10-03T15:37:01.258Z,3.05
2018-10-03T15:39:31.089Z,3.60
2018-10-03T15:42:00.383Z,3.77
2018-10-03T15:44:29.577Z,4.93
2018-10-03T15:46:58.783Z,3.83
2018-10-03T15:49:29.398Z,4.03
2018-10-03T15:51:58.656Z,4.53
2018-10-03T15:54:27.869Z,3.57
2018-10-03T15:56:57.095Z,3.77
2018-10-03T15:59:26.363Z,4.67
2018-10-03T16:01:55.616Z,3.33
2018-10-03T16:04:24.823Z,2.83
2018-10-03T16:06:54.042Z,3.80
2018-10-03T16:09:23.260Z,3.67
2018-10-03T16:11:52.490Z,4.60
2018-10-03T16:14:21.707Z,3.37
2018-10-03T16:16:50.983Z,4.00
2018-10-03T16:19:20.207Z,2.87
2018-10-03T16:21:49.468Z,3.13
2018-10-03T16:24:18.652Z,4.73
2018-10-03T16:26:47.930Z,3.03
2018-10-03T16:29:17.047Z,4.73
2018-10-03T16:31:46.272Z,3.03
2018-10-03T16:34:15.443Z,3.83
2018-10-03T16:36:44.686Z,3.13
2018-10-03T16:39:13.999Z,3.90
2018-10-03T16:41:43.136Z,3.17
2018-10-03T16:44:12.331Z,3.25
2018-10-03T16:46:41.577Z,3.57
2018-10-03T16:49:10.764Z,3.80
2018-10-03T16:51:39.995Z,3.77
2018-10-03T16:54:09.384Z,5.50
2018-10-03T16:56:38.740Z,4.07
2018-10-03T16:59:08.470Z,4.33
2018-10-03T17:01:37.946Z,4.47
2018-10-03T17:04:07.416Z,4.40
2018-10-03T17:06:36.796Z,4.20
2018-10-03T17:09:07.040Z,4.37
2018-10-03T17:11:36.881Z,4.77
2018-10-03T17:14:39.633Z,5.35
2018-10-03T17:17:10.194Z,4.77
2018-10-03T17:19:39.801Z,3.70
2018-10-03T17:22:10.145Z,3.87
2018-10-03T17:24:42.653Z,4.80
2018-10-03T17:27:11.875Z,4.63
2018-10-03T17:29:41.117Z,6.57
2018-10-03T17:32:10.423Z,5.42
2018-10-03T17:34:39.674Z,3.47
2018-10-03T17:37:08.885Z,3.72
2018-10-03T17:39:38.086Z,4.90
2018-10-03T17:42:07.357Z,5.43
2018-10-03T17:44:36.836Z,12.57
2018-10-03T17:47:06.294Z,6.30
2018-10-03T17:49:35.696Z,4.00
2018-10-03T17:52:05.135Z,4.42
2018-10-03T17:54:34.365Z,4.07
2018-10-03T17:57:03.635Z,4.80
2018-10-03T17:59:32.925Z,4.43
2018-10-03T18:02:05.617Z,5.60
2018-10-03T18:04:34.954Z,4.60
2018-10-03T18:07:04.192Z,4.60
2018-10-03T18:09:33.374Z,4.00
2018-10-03T18:12:02.595Z,5.67
2018-10-03T18:14:31.838Z,5.80
2018-10-03T18:17:01.063Z,5.97
2018-10-03T18:19:30.330Z,6.22
2018-10-03T18:21:59.826Z,4.30
2018-10-03T18:24:29.000Z,4.60
2018-10-03T18:26:58.220Z,4.25
2018-10-03T18:29:27.453Z,4.17
2018-10-03T18:31:56.688Z,5.70
2018-10-03T18:34:26.097Z,4.17
2018-10-03T18:36:55.532Z,6.57
2018-10-03T18:39:24.788Z,4.80
2018-10-03T18:41:53.996Z,4.72
2018-10-03T18:44:23.231Z,4.50
2018-10-03T18:46:52.528Z,4.23
2018-10-03T18:49:21.700Z,5.40
2018-10-03T18:51:50.921Z,5.63
2018-10-03T18:54:20.076Z,5.00
2018-10-03T18:56:49.327Z,6.37
2018-10-03T18:59:18.606Z,6.20
2018-10-03T19:01:47.820Z,5.10
2018-10-03T19:04:17.773Z,4.55
2018-10-03T19:06:47.000Z,4.47
2018-10-03T19:09:16.254Z,5.00
2018-10-03T19:11:45.495Z,4.90
2018-10-03T19:14:15.307Z,5.22
2018-10-03T19:16:44.598Z,5.30
2018-10-03T19:19:13.798Z,5.30
2018-10-03T19:21:43.031Z,5.35
2018-10-03T19:24:12.243Z,4.97
2018-10-03T19:26:41.688Z,5.80
2018-10-03T19:29:10.937Z,5.58
2018-10-03T19:31:40.291Z,5.80
2018-10-03T19:34:10.700Z,4.83
2018-10-03T19:36:39.982Z,5.47
2018-10-03T19:39:09.523Z,4.77
2018-10-03T19:41:38.995Z,5.67
2018-10-03T19:44:08.264Z,5.10
2018-10-03T19:46:37.488Z,4.40
2018-10-03T19:49:06.704Z,5.80
2018-10-03T19:51:36.004Z,5.00
2018-10-03T19:54:05.229Z,5.37
2018-10-03T19:56:34.468Z,7.03
2018-10-03T19:59:03.687Z,6.77
2018-10-03T20:01:32.927Z,6.40
2018-10-03T20:04:02.186Z,5.83
2018-10-03T20:06:31.399Z,6.40
2018-10-03T20:09:00.598Z,5.37
2018-10-03T20:11:30.536Z,5.08
2018-10-03T20:14:00.062Z,4.80
2018-10-03T20:16:29.232Z,4.87
2018-10-03T20:18:58.480Z,7.87
2018-10-03T20:21:27.817Z,6.03
2018-10-03T20:23:56.948Z,5.73
2018-10-03T20:26:26.495Z,5.30
2018-10-03T20:28:55.649Z,5.37
2018-10-03T20:31:25.056Z,5.40
2018-10-03T20:33:54.616Z,5.87
2018-10-03T20:36:23.937Z,5.00
2018-10-03T20:38:53.139Z,5.57
2018-10-03T20:41:22.431Z,5.23
2018-10-03T20:43:51.671Z,5.43
2018-10-03T20:46:21.174Z,5.60
2018-10-03T20:48:50.404Z,7.47
2018-10-03T20:51:19.680Z,6.80
2018-10-03T20:53:48.913Z,6.80
2018-10-03T20:56:18.249Z,5.57
2018-10-03T20:58:47.497Z,5.70
2018-10-03T21:01:17.220Z,6.17
2018-10-03T21:03:46.518Z,6.03
2018-10-03T21:06:16.463Z,5.70
2018-10-03T21:08:45.797Z,5.37
2018-10-03T21:11:15.228Z,6.10
2018-10-03T21:13:45.773Z,5.70
2018-10-03T21:16:15.176Z,7.20
2018-10-03T21:18:45.005Z,7.40
2018-10-03T21:21:14.588Z,6.53
2018-10-03T21:23:45.084Z,6.10
2018-10-03T21:26:15.251Z,6.47
2018-10-03T21:28:45.970Z,5.35
2018-10-03T21:31:15.465Z,6.07
2018-10-03T21:33:44.708Z,6.30
2018-10-03T21:36:14.640Z,6.27
2018-10-03T21:38:43.899Z,6.50
2018-10-03T21:41:13.798Z,6.20
2018-10-03T21:43:43.052Z,6.37
2018-10-03T21:46:12.969Z,5.57
2018-10-03T21:48:42.150Z,5.50
2018-10-03T21:51:11.533Z,6.70
2018-10-03T21:53:40.718Z,6.70
2018-10-03T21:56:09.951Z,6.50
2018-10-03T21:58:39.174Z,6.97
2018-10-03T22:01:08.511Z,7.07
2018-10-03T22:03:37.745Z,6.33
2018-10-03T22:06:06.971Z,6.70
2018-10-03T22:08:36.180Z,7.50
2018-10-03T22:11:05.467Z,7.00
2018-10-03T22:13:34.683Z,6.83
2018-10-03T22:16:03.944Z,7.07
2018-10-03T22:18:33.226Z,7.50
2018-10-03T22:21:02.463Z,6.50
2018-10-03T22:23:31.808Z,8.03
2018-10-03T22:26:01.026Z,6.73
2018-10-03T22:28:30.318Z,6.08
2018-10-03T22:30:59.577Z,5.90
2018-10-03T22:33:28.876Z,6.90
2018-10-03T22:35:58.099Z,5.80
2018-10-03T22:38:27.337Z,5.80
2018-10-03T22:40:58.129Z,5.97
2018-10-03T22:43:27.416Z,5.40
2018-10-03T22:45:56.864Z,5.85
2018-10-03T22:48:26.114Z,6.27
2018-10-03T22:50:55.397Z,5.47
2018-10-03T22:53:24.568Z,5.77
2018-10-03T22:55:53.834Z,5.75
2018-10-03T22:58:23.041Z,5.87
2018-10-03T23:00:52.228Z,6.23
2018-10-03T23:03:21.443Z,6.20
2018-10-03T23:05:50.685Z,6.00
2018-10-03T23:08:19.978Z,6.47
2018-10-03T23:10:49.183Z,7.67
2018-10-03T23:13:18.445Z,5.90
2018-10-03T23:15:47.640Z,5.50
2018-10-03T23:18:17.038Z,6.30
2018-10-03T23:20:46.215Z,5.10
2018-10-03T23:23:15.796Z,7.00
2018-10-03T23:25:45.083Z,5.33
2018-10-03T23:28:17.825Z,6.47
2018-10-03T23:30:47.042Z,6.63
2018-10-03T23:33:16.591Z,6.13
2018-10-03T23:35:45.859Z,6.13
2018-10-03T23:38:15.751Z,6.10
2018-10-03T23:40:45.020Z,5.73
2018-10-03T23:43:18.004Z,6.10
2018-10-03T23:45:48.724Z,5.73
2018-10-03T23:48:18.017Z,4.93
2018-10-03T23:50:47.239Z,5.70
2018-10-03T23:53:16.895Z,6.40
2018-10-03T23:55:46.139Z,6.85
2018-10-03T23:58:16.228Z,6.47
